Webcam 1 more information Webcam 1


Webcam 2 more information Webcam 2


avvertimento per Pioggia more information rain snow radar


altri nostri siti meteo:

Pomeziameteo 1Sito sul meteo

Pomeziameteo DashboardSito sul meteo

Caput FrigorisSito sul meteo

BarcellonameteoSito sul meteo

MeteoipassiSito sul meteo

ViterbometeoSito sul meteo

MeteotortoretoSito sul meteo

Stazione LineameteoSito sul meteo



Vento Inizio validita dal: 14-12-2018 10:00 Fino: 16-12-2018 23:59 Allerta per: Vento Livello: Giallo info button
Pioggia Inizio validita dal: 14-12-2018 10:00 Fino: 17:59 Allerta per: Pioggia Livello: Giallo info button

Notice: Undefined offset: 6 in /web/htdocs/www.castelnuovovomanometeo.it/home/weather28/metar/metarDisplay.php on line 76

Notice: Undefined offset: 5 in /web/htdocs/www.castelnuovovomanometeo.it/home/weather28/metar/metarDisplay.php on line 76

Report METAR

   
LIBP - Pescara
Dati ricevuti: 14-12-2018 17:50
Pioggia, Molto nuvoloso  
Pioggia, Molto nuvoloso  
   Vento: SW 5.6 km/h
Vento: SW 5.6 km/h
Temperatura: 7°C
Temperatura Vento: 6°C
P.to Rugiada: 6°C
Umidita: 93%
Barometro: 1013 hPa
Nuvole: Molto nuvoloso
Visibilita: 9 km
dettagli cloud: Molto nuvoloso 2000 ft
LIBP 141650Z 23003KT 180V250 9000 RA BKN020 07/06 Q1013
LIRZ - Perugia
Dati ricevuti: 14-12-2018 17:50
Molto nuvoloso  
Molto nuvoloso  
   Vento: Nord 16.7 km/h
Vento: Nord 16.7 km/h
Temperatura: 5°C
Temperatura Vento: 2°C
P.to Rugiada: 2°C
Umidita: 81%
Barometro: 1011 hPa
Nuvole: Molto nuvoloso
Visibilita: oltre 10 km
dettagli cloud: Molto nuvoloso 4000 ft
LIRZ 141650Z 01009KT 9999 BKN040 05/02 Q1011
LIQN - Rieti
Dati ricevuti: 14-12-2018 16:50
DATI Obsoleti
Pioggia leggera, Nebbia, Coperto  
Pioggia leggera, Nebbia, Coperto  
   Vento: NO 7.4 km/h
Vento: NO 7.4 km/h
Temperatura: 5°C
Temperatura Vento: 3°C
P.to Rugiada: 5°C
Umidita: 100%
Barometro: 1008 hPa
Nuvole: Coperto
Visibilita: 2 km
dettagli cloud: Coperto 1000 ft
LIQN 141550Z 31004KT 2000 -RA BR OVC010 05/05 Q1008 RERA
LIPY - Falconara
Dati ricevuti: 14-12-2018 17:50
Pioggia leggera, Nebbia, Molto nuvoloso  
Pioggia leggera, Nebbia, Molto nuvoloso  
   Vento: West 11.1 km/h
Vento: West 11.1 km/h
Temperatura: 4°C
Temperatura Vento: 1°C
P.to Rugiada: 4°C
Umidita: 100%
Barometro: 1014 hPa
Nuvole: Molto nuvoloso
Visibilita: 5 km
dettagli cloud: Parzialmente nuvoloso 1000 ft,
Molto nuvoloso 2500 ft
LIPY 141650Z 28006KT 250V310 5000 -RA BR SCT010 BKN025 04/04 Q1014
  

Script sviluppato da  Saratoga-weather.org Adattato per il modello da  Weerstation Leuven

Potete trovare le nostre info meteo anche a:

Weather Underground

AWEKAS

Citizen Weather Observer Program (CWOP)

HAMweather, WeatherForYou, PWS Weather

Strumentazione usata:

Stazione meteo
Oregon 928

Programma gestore dati meteo
WVIEW

Server per i dati meteo
Pc-WDS5

Oregon 928

WVIEW

Pc-WDS5